sensor_id;sensor_type;location;lat;lon;timestamp;P1;durP1;ratioP1;P2;durP2;ratioP2
9823;SDS011;4951;50.778;7.196;2022-09-21T00:00:03;5.70;;;4.00;;
9823;SDS011;4951;50.778;7.196;2022-09-21T00:02:33;5.07;;;4.20;;
9823;SDS011;4951;50.778;7.196;2022-09-21T00:05:08;6.90;;;3.30;;
9823;SDS011;4951;50.778;7.196;2022-09-21T00:07:51;4.87;;;3.67;;
9823;SDS011;4951;50.778;7.196;2022-09-21T00:10:29;3.60;;;2.87;;
9823;SDS011;4951;50.778;7.196;2022-09-21T00:13:02;6.17;;;3.30;;
9823;SDS011;4951;50.778;7.196;2022-09-21T00:15:52;4.17;;;3.57;;
9823;SDS011;4951;50.778;7.196;2022-09-21T00:18:42;4.07;;;3.10;;
9823;SDS011;4951;50.778;7.196;2022-09-21T00:21:19;6.27;;;3.80;;
9823;SDS011;4951;50.778;7.196;2022-09-21T00:23:52;4.73;;;3.40;;
9823;SDS011;4951;50.778;7.196;2022-09-21T00:26:56;6.43;;;4.30;;
9823;SDS011;4951;50.778;7.196;2022-09-21T00:29:24;4.83;;;4.17;;
9823;SDS011;4951;50.778;7.196;2022-09-21T00:31:56;8.33;;;4.20;;
9823;SDS011;4951;50.778;7.196;2022-09-21T00:34:28;6.30;;;4.67;;
9823;SDS011;4951;50.778;7.196;2022-09-21T00:36:59;7.47;;;3.63;;
9823;SDS011;4951;50.778;7.196;2022-09-21T00:39:30;4.67;;;3.80;;
9823;SDS011;4951;50.778;7.196;2022-09-21T00:45:44;7.13;;;3.90;;
9823;SDS011;4951;50.778;7.196;2022-09-21T00:48:22;4.17;;;3.70;;
9823;SDS011;4951;50.778;7.196;2022-09-21T00:50:57;5.93;;;3.90;;
9823;SDS011;4951;50.778;7.196;2022-09-21T00:53:31;5.77;;;3.93;;
9823;SDS011;4951;50.778;7.196;2022-09-21T00:56:27;4.90;;;3.80;;
9823;SDS011;4951;50.778;7.196;2022-09-21T00:59:02;5.17;;;3.57;;
9823;SDS011;4951;50.778;7.196;2022-09-21T01:01:34;5.40;;;3.80;;
9823;SDS011;4951;50.778;7.196;2022-09-21T01:04:07;4.57;;;3.77;;
9823;SDS011;4951;50.778;7.196;2022-09-21T01:06:39;6.07;;;4.30;;
9823;SDS011;4951;50.778;7.196;2022-09-21T01:09:20;5.33;;;4.60;;
9823;SDS011;4951;50.778;7.196;2022-09-21T01:12:08;5.23;;;4.67;;
9823;SDS011;4951;50.778;7.196;2022-09-21T01:15:01;6.57;;;4.57;;
9823;SDS011;4951;50.778;7.196;2022-09-21T01:17:43;6.07;;;5.33;;
9823;SDS011;4951;50.778;7.196;2022-09-21T01:23:30;6.70;;;4.80;;
9823;SDS011;4951;50.778;7.196;2022-09-21T01:26:17;10.17;;;6.23;;
9823;SDS011;4951;50.778;7.196;2022-09-21T01:29:02;7.93;;;6.80;;
9823;SDS011;4951;50.778;7.196;2022-09-21T01:31:52;7.93;;;7.07;;
9823;SDS011;4951;50.778;7.196;2022-09-21T01:34:26;7.33;;;6.37;;
9823;SDS011;4951;50.778;7.196;2022-09-21T01:37:03;6.93;;;6.20;;
9823;SDS011;4951;50.778;7.196;2022-09-21T01:39:43;8.07;;;6.00;;
9823;SDS011;4951;50.778;7.196;2022-09-21T01:42:14;7.77;;;6.97;;
9823;SDS011;4951;50.778;7.196;2022-09-21T01:44:46;12.40;;;6.80;;
9823;SDS011;4951;50.778;7.196;2022-09-21T01:47:15;12.30;;;6.73;;
9823;SDS011;4951;50.778;7.196;2022-09-21T01:49:44;14.37;;;7.27;;
9823;SDS011;4951;50.778;7.196;2022-09-21T01:52:22;23.53;;;6.80;;
9823;SDS011;4951;50.778;7.196;2022-09-21T01:55:14;16.40;;;7.73;;
9823;SDS011;4951;50.778;7.196;2022-09-21T01:57:54;11.77;;;7.10;;
9823;SDS011;4951;50.778;7.196;2022-09-21T02:00:29;8.10;;;6.20;;
9823;SDS011;4951;50.778;7.196;2022-09-21T02:03:00;13.17;;;6.20;;
9823;SDS011;4951;50.778;7.196;2022-09-21T02:05:43;7.70;;;5.90;;
9823;SDS011;4951;50.778;7.196;2022-09-21T02:08:26;13.80;;;6.93;;
9823;SDS011;4951;50.778;7.196;2022-09-21T02:10:58;6.57;;;5.53;;
9823;SDS011;4951;50.778;7.196;2022-09-21T02:13:30;11.40;;;6.40;;
9823;SDS011;4951;50.778;7.196;2022-09-21T02:16:10;8.77;;;6.73;;
9823;SDS011;4951;50.778;7.196;2022-09-21T02:19:05;7.43;;;6.17;;
9823;SDS011;4951;50.778;7.196;2022-09-21T02:21:45;9.77;;;6.10;;
9823;SDS011;4951;50.778;7.196;2022-09-21T02:24:24;7.23;;;5.57;;
9823;SDS011;4951;50.778;7.196;2022-09-21T02:27:04;5.80;;;4.70;;
9823;SDS011;4951;50.778;7.196;2022-09-21T02:29:44;4.60;;;4.20;;
9823;SDS011;4951;50.778;7.196;2022-09-21T02:32:30;4.97;;;4.33;;
9823;SDS011;4951;50.778;7.196;2022-09-21T02:35:40;7.13;;;5.70;;
9823;SDS011;4951;50.778;7.196;2022-09-21T02:38:38;5.83;;;4.90;;
9823;SDS011;4951;50.778;7.196;2022-09-21T02:41:18;5.70;;;5.00;;
9823;SDS011;4951;50.778;7.196;2022-09-21T02:43:53;5.50;;;5.00;;
9823;SDS011;4951;50.778;7.196;2022-09-21T02:46:49;6.40;;;5.73;;
9823;SDS011;4951;50.778;7.196;2022-09-21T02:49:34;6.80;;;5.47;;
9823;SDS011;4951;50.778;7.196;2022-09-21T02:55:18;5.97;;;4.70;;
9823;SDS011;4951;50.778;7.196;2022-09-21T02:58:03;6.37;;;5.33;;
9823;SDS011;4951;50.778;7.196;2022-09-21T03:00:44;8.97;;;5.00;;
9823;SDS011;4951;50.778;7.196;2022-09-21T03:03:20;5.47;;;4.47;;
9823;SDS011;4951;50.778;7.196;2022-09-21T03:05:54;7.77;;;5.57;;
9823;SDS011;4951;50.778;7.196;2022-09-21T03:08:23;13.43;;;6.70;;
9823;SDS011;4951;50.778;7.196;2022-09-21T03:13:46;28.40;;;7.13;;
9823;SDS011;4951;50.778;7.196;2022-09-21T03:16:26;32.73;;;9.33;;
9823;SDS011;4951;50.778;7.196;2022-09-21T03:18:57;20.87;;;7.70;;
9823;SDS011;4951;50.778;7.196;2022-09-21T03:21:33;10.57;;;6.73;;
9823;SDS011;4951;50.778;7.196;2022-09-21T03:24:01;17.23;;;9.33;;
9823;SDS011;4951;50.778;7.196;2022-09-21T03:26:35;9.93;;;7.20;;
9823;SDS011;4951;50.778;7.196;2022-09-21T03:29:05;17.30;;;9.33;;
9823;SDS011;4951;50.778;7.196;2022-09-21T03:31:35;15.03;;;7.93;;
9823;SDS011;4951;50.778;7.196;2022-09-21T03:34:03;20.60;;;8.37;;
9823;SDS011;4951;50.778;7.196;2022-09-21T03:36:35;20.03;;;7.80;;
9823;SDS011;4951;50.778;7.196;2022-09-21T03:39:07;18.07;;;6.57;;
9823;SDS011;4951;50.778;7.196;2022-09-21T03:41:47;45.33;;;11.97;;
9823;SDS011;4951;50.778;7.196;2022-09-21T03:44:15;22.37;;;8.03;;
9823;SDS011;4951;50.778;7.196;2022-09-21T03:46:44;27.37;;;7.67;;
9823;SDS011;4951;50.778;7.196;2022-09-21T03:49:28;62.87;;;10.37;;
9823;SDS011;4951;50.778;7.196;2022-09-21T03:51:59;25.53;;;6.70;;
9823;SDS011;4951;50.778;7.196;2022-09-21T03:54:28;22.70;;;7.53;;
9823;SDS011;4951;50.778;7.196;2022-09-21T03:56:57;25.10;;;8.40;;
9823;SDS011;4951;50.778;7.196;2022-09-21T03:59:27;15.10;;;7.07;;
9823;SDS011;4951;50.778;7.196;2022-09-21T04:02:04;40.17;;;9.13;;
9823;SDS011;4951;50.778;7.196;2022-09-21T04:04:36;27.27;;;8.63;;
9823;SDS011;4951;50.778;7.196;2022-09-21T04:07:10;52.77;;;11.23;;
9823;SDS011;4951;50.778;7.196;2022-09-21T04:09:51;35.73;;;9.60;;
9823;SDS011;4951;50.778;7.196;2022-09-21T04:12:34;27.77;;;9.33;;
9823;SDS011;4951;50.778;7.196;2022-09-21T04:15:02;24.67;;;9.10;;
9823;SDS011;4951;50.778;7.196;2022-09-21T04:17:34;53.63;;;11.70;;
9823;SDS011;4951;50.778;7.196;2022-09-21T04:20:03;28.00;;;9.67;;
9823;SDS011;4951;50.778;7.196;2022-09-21T04:22:39;15.43;;;8.20;;
9823;SDS011;4951;50.778;7.196;2022-09-21T04:25:11;22.10;;;9.30;;
9823;SDS011;4951;50.778;7.196;2022-09-21T04:27:41;8.03;;;7.23;;
9823;SDS011;4951;50.778;7.196;2022-09-21T04:30:24;7.43;;;6.57;;
9823;SDS011;4951;50.778;7.196;2022-09-21T04:32:58;14.97;;;7.50;;
9823;SDS011;4951;50.778;7.196;2022-09-21T04:35:33;7.57;;;6.73;;
9823;SDS011;4951;50.778;7.196;2022-09-21T04:38:08;12.47;;;7.73;;
9823;SDS011;4951;50.778;7.196;2022-09-21T04:40:38;14.17;;;7.13;;
9823;SDS011;4951;50.778;7.196;2022-09-21T04:43:10;14.43;;;8.20;;
9823;SDS011;4951;50.778;7.196;2022-09-21T04:45:50;15.83;;;8.27;;
9823;SDS011;4951;50.778;7.196;2022-09-21T04:48:19;50.43;;;9.60;;
9823;SDS011;4951;50.778;7.196;2022-09-21T04:50:47;63.37;;;14.13;;
9823;SDS011;4951;50.778;7.196;2022-09-21T04:53:23;55.90;;;10.60;;
9823;SDS011;4951;50.778;7.196;2022-09-21T04:55:54;72.17;;;15.00;;
9823;SDS011;4951;50.778;7.196;2022-09-21T04:58:21;55.90;;;14.17;;
9823;SDS011;4951;50.778;7.196;2022-09-21T05:00:50;65.27;;;10.23;;
9823;SDS011;4951;50.778;7.196;2022-09-21T05:03:21;72.80;;;14.23;;
9823;SDS011;4951;50.778;7.196;2022-09-21T05:05:55;53.40;;;12.20;;
9823;SDS011;4951;50.778;7.196;2022-09-21T05:08:44;44.30;;;13.83;;
9823;SDS011;4951;50.778;7.196;2022-09-21T05:11:31;68.93;;;14.40;;
9823;SDS011;4951;50.778;7.196;2022-09-21T05:14:00;43.67;;;11.53;;
9823;SDS011;4951;50.778;7.196;2022-09-21T05:16:27;56.27;;;14.07;;
9823;SDS011;4951;50.778;7.196;2022-09-21T05:19:08;23.17;;;9.73;;
9823;SDS011;4951;50.778;7.196;2022-09-21T05:21:57;42.17;;;11.47;;
9823;SDS011;4951;50.778;7.196;2022-09-21T05:24:29;63.63;;;12.73;;
9823;SDS011;4951;50.778;7.196;2022-09-21T05:27:06;22.07;;;9.63;;
9823;SDS011;4951;50.778;7.196;2022-09-21T05:29:40;20.87;;;8.50;;
9823;SDS011;4951;50.778;7.196;2022-09-21T05:32:15;12.60;;;7.83;;
9823;SDS011;4951;50.778;7.196;2022-09-21T05:34:52;15.27;;;7.93;;
9823;SDS011;4951;50.778;7.196;2022-09-21T05:37:44;8.60;;;6.70;;
9823;SDS011;4951;50.778;7.196;2022-09-21T05:40:29;7.40;;;6.50;;
9823;SDS011;4951;50.778;7.196;2022-09-21T05:43:30;6.43;;;5.83;;
9823;SDS011;4951;50.778;7.196;2022-09-21T05:46:02;8.17;;;7.27;;
9823;SDS011;4951;50.778;7.196;2022-09-21T05:48:46;5.60;;;5.10;;
9823;SDS011;4951;50.778;7.196;2022-09-21T05:51:32;6.17;;;5.57;;
9823;SDS011;4951;50.778;7.196;2022-09-21T05:54:07;5.63;;;5.13;;
9823;SDS011;4951;50.778;7.196;2022-09-21T05:56:44;7.17;;;5.03;;
9823;SDS011;4951;50.778;7.196;2022-09-21T05:59:26;9.73;;;5.90;;
9823;SDS011;4951;50.778;7.196;2022-09-21T06:02:14;7.77;;;5.77;;
9823;SDS011;4951;50.778;7.196;2022-09-21T06:04:53;9.47;;;6.40;;
9823;SDS011;4951;50.778;7.196;2022-09-21T06:07:23;7.87;;;6.13;;
9823;SDS011;4951;50.778;7.196;2022-09-21T06:09:54;6.60;;;5.90;;
9823;SDS011;4951;50.778;7.196;2022-09-21T06:12:37;7.30;;;6.70;;
9823;SDS011;4951;50.778;7.196;2022-09-21T06:15:15;10.33;;;7.37;;
9823;SDS011;4951;50.778;7.196;2022-09-21T06:18:00;10.27;;;9.13;;
9823;SDS011;4951;50.778;7.196;2022-09-21T06:20:41;10.17;;;8.17;;
9823;SDS011;4951;50.778;7.196;2022-09-21T06:23:16;14.17;;;9.87;;
9823;SDS011;4951;50.778;7.196;2022-09-21T06:25:49;18.63;;;10.77;;
9823;SDS011;4951;50.778;7.196;2022-09-21T06:28:23;19.23;;;11.70;;
9823;SDS011;4951;50.778;7.196;2022-09-21T06:30:52;14.53;;;9.87;;
9823;SDS011;4951;50.778;7.196;2022-09-21T06:33:28;13.67;;;9.23;;
9823;SDS011;4951;50.778;7.196;2022-09-21T06:36:00;19.33;;;11.40;;
9823;SDS011;4951;50.778;7.196;2022-09-21T06:38:32;14.60;;;11.17;;
9823;SDS011;4951;50.778;7.196;2022-09-21T06:41:01;14.43;;;10.57;;
9823;SDS011;4951;50.778;7.196;2022-09-21T06:43:34;14.13;;;8.53;;
9823;SDS011;4951;50.778;7.196;2022-09-21T06:46:02;11.57;;;8.93;;
9823;SDS011;4951;50.778;7.196;2022-09-21T06:48:30;11.50;;;8.90;;
9823;SDS011;4951;50.778;7.196;2022-09-21T06:51:03;10.80;;;8.97;;
9823;SDS011;4951;50.778;7.196;2022-09-21T06:53:45;10.73;;;9.57;;
9823;SDS011;4951;50.778;7.196;2022-09-21T06:56:13;10.20;;;8.70;;
9823;SDS011;4951;50.778;7.196;2022-09-21T06:58:47;11.20;;;9.23;;
9823;SDS011;4951;50.778;7.196;2022-09-21T07:01:19;9.93;;;8.63;;
9823;SDS011;4951;50.778;7.196;2022-09-21T07:03:50;13.70;;;9.77;;
9823;SDS011;4951;50.778;7.196;2022-09-21T07:06:19;9.20;;;8.23;;
9823;SDS011;4951;50.778;7.196;2022-09-21T07:09:02;9.57;;;7.73;;
9823;SDS011;4951;50.778;7.196;2022-09-21T07:11:29;8.07;;;7.27;;
9823;SDS011;4951;50.778;7.196;2022-09-21T07:13:58;7.83;;;6.57;;
9823;SDS011;4951;50.778;7.196;2022-09-21T07:16:25;7.30;;;6.60;;
9823;SDS011;4951;50.778;7.196;2022-09-21T07:18:54;8.13;;;6.20;;
9823;SDS011;4951;50.778;7.196;2022-09-21T07:21:22;6.73;;;5.87;;
9823;SDS011;4951;50.778;7.196;2022-09-21T07:23:57;8.20;;;7.43;;
9823;SDS011;4951;50.778;7.196;2022-09-21T07:26:27;7.03;;;6.33;;
9823;SDS011;4951;50.778;7.196;2022-09-21T07:29:00;16.13;;;6.97;;
9823;SDS011;4951;50.778;7.196;2022-09-21T07:31:29;8.40;;;6.33;;
9823;SDS011;4951;50.778;7.196;2022-09-21T07:33:57;7.50;;;6.80;;
9823;SDS011;4951;50.778;7.196;2022-09-21T07:36:25;7.23;;;6.37;;
9823;SDS011;4951;50.778;7.196;2022-09-21T07:38:52;8.57;;;6.77;;
9823;SDS011;4951;50.778;7.196;2022-09-21T07:41:19;7.10;;;6.40;;
9823;SDS011;4951;50.778;7.196;2022-09-21T07:47:49;8.00;;;7.30;;
9823;SDS011;4951;50.778;7.196;2022-09-21T07:50:20;8.47;;;7.67;;
9823;SDS011;4951;50.778;7.196;2022-09-21T07:52:48;8.60;;;7.80;;
9823;SDS011;4951;50.778;7.196;2022-09-21T07:55:19;8.00;;;7.20;;
9823;SDS011;4951;50.778;7.196;2022-09-21T07:57:48;7.57;;;6.87;;
9823;SDS011;4951;50.778;7.196;2022-09-21T08:00:39;9.37;;;8.30;;
9823;SDS011;4951;50.778;7.196;2022-09-21T08:03:11;8.80;;;7.83;;
9823;SDS011;4951;50.778;7.196;2022-09-21T08:05:38;9.13;;;8.23;;
9823;SDS011;4951;50.778;7.196;2022-09-21T08:08:05;7.43;;;6.73;;
9823;SDS011;4951;50.778;7.196;2022-09-21T08:10:33;10.33;;;9.20;;
9823;SDS011;4951;50.778;7.196;2022-09-21T08:13:01;12.53;;;8.60;;
9823;SDS011;4951;50.778;7.196;2022-09-21T08:15:30;10.00;;;9.00;;
9823;SDS011;4951;50.778;7.196;2022-09-21T08:18:00;10.50;;;9.50;;
9823;SDS011;4951;50.778;7.196;2022-09-21T08:20:35;10.47;;;9.20;;
9823;SDS011;4951;50.778;7.196;2022-09-21T08:23:03;9.90;;;8.90;;
9823;SDS011;4951;50.778;7.196;2022-09-21T08:25:41;9.60;;;8.30;;
9823;SDS011;4951;50.778;7.196;2022-09-21T08:28:14;9.43;;;8.47;;
9823;SDS011;4951;50.778;7.196;2022-09-21T08:30:45;9.37;;;8.43;;
9823;SDS011;4951;50.778;7.196;2022-09-21T08:33:21;11.23;;;8.00;;
9823;SDS011;4951;50.778;7.196;2022-09-21T08:35:54;8.10;;;7.27;;
9823;SDS011;4951;50.778;7.196;2022-09-21T08:38:34;7.13;;;6.20;;
9823;SDS011;4951;50.778;7.196;2022-09-21T08:41:09;7.53;;;6.57;;
9823;SDS011;4951;50.778;7.196;2022-09-21T08:43:44;8.57;;;7.27;;
9823;SDS011;4951;50.778;7.196;2022-09-21T08:46:17;8.43;;;6.60;;
9823;SDS011;4951;50.778;7.196;2022-09-21T08:48:54;8.90;;;7.30;;
9823;SDS011;4951;50.778;7.196;2022-09-21T08:51:44;7.73;;;6.93;;
9823;SDS011;4951;50.778;7.196;2022-09-21T08:54:26;9.43;;;6.77;;
9823;SDS011;4951;50.778;7.196;2022-09-21T08:56:56;10.73;;;7.07;;
9823;SDS011;4951;50.778;7.196;2022-09-21T08:59:24;8.97;;;6.83;;
9823;SDS011;4951;50.778;7.196;2022-09-21T09:02:00;7.50;;;6.80;;
9823;SDS011;4951;50.778;7.196;2022-09-21T09:04:49;5.63;;;5.13;;
9823;SDS011;4951;50.778;7.196;2022-09-21T09:07:34;6.17;;;5.57;;
9823;SDS011;4951;50.778;7.196;2022-09-21T09:10:21;8.47;;;5.93;;
9823;SDS011;4951;50.778;7.196;2022-09-21T09:13:11;7.30;;;5.30;;
9823;SDS011;4951;50.778;7.196;2022-09-21T09:16:01;5.67;;;4.70;;
9823;SDS011;4951;50.778;7.196;2022-09-21T09:18:40;5.70;;;4.77;;
9823;SDS011;4951;50.778;7.196;2022-09-21T09:21:19;5.47;;;4.43;;
9823;SDS011;4951;50.778;7.196;2022-09-21T09:23:53;6.23;;;5.07;;
9823;SDS011;4951;50.778;7.196;2022-09-21T09:26:32;6.50;;;5.37;;
9823;SDS011;4951;50.778;7.196;2022-09-21T09:29:10;6.60;;;4.70;;
9823;SDS011;4951;50.778;7.196;2022-09-21T09:31:46;5.80;;;4.80;;
9823;SDS011;4951;50.778;7.196;2022-09-21T09:34:17;6.30;;;4.80;;
9823;SDS011;4951;50.778;7.196;2022-09-21T09:36:56;4.90;;;4.47;;
9823;SDS011;4951;50.778;7.196;2022-09-21T09:39:29;5.13;;;4.57;;
9823;SDS011;4951;50.778;7.196;2022-09-21T09:42:07;6.60;;;4.17;;
9823;SDS011;4951;50.778;7.196;2022-09-21T09:48:14;6.63;;;4.40;;
9823;SDS011;4951;50.778;7.196;2022-09-21T09:50:51;5.07;;;4.10;;
9823;SDS011;4951;50.778;7.196;2022-09-21T09:53:19;6.53;;;3.87;;
9823;SDS011;4951;50.778;7.196;2022-09-21T09:55:51;5.40;;;3.70;;
9823;SDS011;4951;50.778;7.196;2022-09-21T09:58:21;4.20;;;3.57;;
9823;SDS011;4951;50.778;7.196;2022-09-21T10:00:52;4.07;;;3.63;;
9823;SDS011;4951;50.778;7.196;2022-09-21T10:03:23;5.20;;;3.40;;
9823;SDS011;4951;50.778;7.196;2022-09-21T10:05:54;3.83;;;3.27;;
9823;SDS011;4951;50.778;7.196;2022-09-21T10:08:26;2.90;;;2.60;;
9823;SDS011;4951;50.778;7.196;2022-09-21T10:10:56;5.03;;;2.57;;
9823;SDS011;4951;50.778;7.196;2022-09-21T10:13:26;4.27;;;2.70;;
9823;SDS011;4951;50.778;7.196;2022-09-21T10:15:56;5.80;;;2.90;;
9823;SDS011;4951;50.778;7.196;2022-09-21T10:18:26;5.37;;;2.90;;
9823;SDS011;4951;50.778;7.196;2022-09-21T10:21:02;4.23;;;2.50;;
9823;SDS011;4951;50.778;7.196;2022-09-21T10:23:31;3.17;;;2.37;;
9823;SDS011;4951;50.778;7.196;2022-09-21T10:26:03;3.17;;;2.40;;
9823;SDS011;4951;50.778;7.196;2022-09-21T10:28:32;4.30;;;2.50;;
9823;SDS011;4951;50.778;7.196;2022-09-21T10:31:10;5.63;;;2.13;;
9823;SDS011;4951;50.778;7.196;2022-09-21T10:33:49;4.47;;;2.00;;
9823;SDS011;4951;50.778;7.196;2022-09-21T10:36:25;5.57;;;2.27;;
9823;SDS011;4951;50.778;7.196;2022-09-21T10:38:55;4.43;;;2.30;;
9823;SDS011;4951;50.778;7.196;2022-09-21T10:41:36;2.73;;;2.27;;
9823;SDS011;4951;50.778;7.196;2022-09-21T10:44:09;3.33;;;2.07;;
9823;SDS011;4951;50.778;7.196;2022-09-21T10:46:48;2.20;;;1.67;;
9823;SDS011;4951;50.778;7.196;2022-09-21T10:49:19;5.50;;;2.37;;
9823;SDS011;4951;50.778;7.196;2022-09-21T10:51:50;3.00;;;1.97;;
9823;SDS011;4951;50.778;7.196;2022-09-21T10:54:39;2.83;;;1.60;;
9823;SDS011;4951;50.778;7.196;2022-09-21T10:57:13;4.23;;;1.83;;
9823;SDS011;4951;50.778;7.196;2022-09-21T10:59:50;5.03;;;1.70;;
9823;SDS011;4951;50.778;7.196;2022-09-21T11:05:19;6.27;;;1.70;;
9823;SDS011;4951;50.778;7.196;2022-09-21T11:07:53;3.43;;;1.50;;
9823;SDS011;4951;50.778;7.196;2022-09-21T11:10:32;3.80;;;1.43;;
9823;SDS011;4951;50.778;7.196;2022-09-21T11:13:13;3.30;;;1.77;;
9823;SDS011;4951;50.778;7.196;2022-09-21T11:15:55;2.47;;;1.60;;
9823;SDS011;4951;50.778;7.196;2022-09-21T11:18:33;2.00;;;1.17;;
9823;SDS011;4951;50.778;7.196;2022-09-21T11:21:13;6.43;;;1.53;;
9823;SDS011;4951;50.778;7.196;2022-09-21T11:23:54;2.67;;;1.67;;
9823;SDS011;4951;50.778;7.196;2022-09-21T11:26:39;1.73;;;1.17;;
9823;SDS011;4951;50.778;7.196;2022-09-21T11:29:14;2.77;;;1.23;;
9823;SDS011;4951;50.778;7.196;2022-09-21T11:31:59;3.37;;;1.30;;
9823;SDS011;4951;50.778;7.196;2022-09-21T11:34:44;2.70;;;1.20;;
9823;SDS011;4951;50.778;7.196;2022-09-21T11:37:39;3.00;;;1.20;;
9823;SDS011;4951;50.778;7.196;2022-09-21T11:40:27;4.03;;;1.30;;
9823;SDS011;4951;50.778;7.196;2022-09-21T11:43:19;2.10;;;1.10;;
9823;SDS011;4951;50.778;7.196;2022-09-21T11:46:16;4.40;;;1.27;;
9823;SDS011;4951;50.778;7.196;2022-09-21T11:48:54;3.90;;;1.30;;
9823;SDS011;4951;50.778;7.196;2022-09-21T11:51:46;2.90;;;1.20;;
9823;SDS011;4951;50.778;7.196;2022-09-21T11:54:33;2.67;;;1.27;;
9823;SDS011;4951;50.778;7.196;2022-09-21T11:57:24;3.03;;;1.07;;
9823;SDS011;4951;50.778;7.196;2022-09-21T12:00:04;4.00;;;1.13;;
9823;SDS011;4951;50.778;7.196;2022-09-21T12:02:43;2.80;;;1.23;;
9823;SDS011;4951;50.778;7.196;2022-09-21T12:05:40;3.93;;;1.30;;
9823;SDS011;4951;50.778;7.196;2022-09-21T12:08:38;3.57;;;1.27;;
9823;SDS011;4951;50.778;7.196;2022-09-21T12:11:23;2.33;;;1.10;;
9823;SDS011;4951;50.778;7.196;2022-09-21T12:14:17;2.80;;;1.30;;
9823;SDS011;4951;50.778;7.196;2022-09-21T12:16:58;3.23;;;1.33;;
9823;SDS011;4951;50.778;7.196;2022-09-21T12:19:47;1.33;;;1.13;;
9823;SDS011;4951;50.778;7.196;2022-09-21T12:22:51;2.93;;;1.20;;
9823;SDS011;4951;50.778;7.196;2022-09-21T12:25:30;3.83;;;1.80;;
9823;SDS011;4951;50.778;7.196;2022-09-21T12:31:10;1.87;;;1.10;;
9823;SDS011;4951;50.778;7.196;2022-09-21T12:33:47;3.53;;;1.10;;
9823;SDS011;4951;50.778;7.196;2022-09-21T12:36:26;1.93;;;1.10;;
9823;SDS011;4951;50.778;7.196;2022-09-21T12:39:09;4.53;;;1.40;;
9823;SDS011;4951;50.778;7.196;2022-09-21T12:41:56;1.50;;;1.00;;
9823;SDS011;4951;50.778;7.196;2022-09-21T12:44:31;1.13;;;1.00;;
9823;SDS011;4951;50.778;7.196;2022-09-21T12:47:23;2.50;;;1.13;;
9823;SDS011;4951;50.778;7.196;2022-09-21T12:50:02;2.00;;;1.10;;
9823;SDS011;4951;50.778;7.196;2022-09-21T12:52:43;2.60;;;1.20;;
9823;SDS011;4951;50.778;7.196;2022-09-21T12:58:14;2.30;;;1.30;;
9823;SDS011;4951;50.778;7.196;2022-09-21T13:01:04;2.33;;;1.30;;
9823;SDS011;4951;50.778;7.196;2022-09-21T13:03:44;2.50;;;1.10;;
9823;SDS011;4951;50.778;7.196;2022-09-21T13:06:37;2.27;;;1.10;;
9823;SDS011;4951;50.778;7.196;2022-09-21T13:09:31;1.80;;;1.10;;
9823;SDS011;4951;50.778;7.196;2022-09-21T13:12:05;2.70;;;2.20;;
9823;SDS011;4951;50.778;7.196;2022-09-21T13:14:41;3.63;;;1.50;;
9823;SDS011;4951;50.778;7.196;2022-09-21T13:17:28;1.85;;;1.10;;
9823;SDS011;4951;50.778;7.196;2022-09-21T13:20:20;1.48;;;0.90;;
9823;SDS011;4951;50.778;7.196;2022-09-21T13:22:56;3.42;;;1.10;;
9823;SDS011;4951;50.778;7.196;2022-09-21T13:28:19;2.47;;;1.00;;
9823;SDS011;4951;50.778;7.196;2022-09-21T13:30:49;1.70;;;1.10;;
9823;SDS011;4951;50.778;7.196;2022-09-21T13:43:22;1.33;;;1.00;;
9823;SDS011;4951;50.778;7.196;2022-09-21T13:49:30;1.27;;;0.90;;
9823;SDS011;4951;50.778;7.196;2022-09-21T13:52:24;1.00;;;0.85;;
9823;SDS011;4951;50.778;7.196;2022-09-21T13:55:05;1.15;;;0.95;;
9823;SDS011;4951;50.778;7.196;2022-09-21T13:57:56;2.17;;;0.93;;
9823;SDS011;4951;50.778;7.196;2022-09-21T14:00:57;0.77;;;0.77;;
9823;SDS011;4951;50.778;7.196;2022-09-21T14:03:39;1.30;;;0.90;;
9823;SDS011;4951;50.778;7.196;2022-09-21T14:06:16;1.00;;;0.80;;
9823;SDS011;4951;50.778;7.196;2022-09-21T14:08:48;0.80;;;0.80;;
9823;SDS011;4951;50.778;7.196;2022-09-21T14:11:35;0.70;;;0.70;;
9823;SDS011;4951;50.778;7.196;2022-09-21T14:17:02;1.73;;;1.20;;
9823;SDS011;4951;50.778;7.196;2022-09-21T14:22:36;1.77;;;1.00;;
9823;SDS011;4951;50.778;7.196;2022-09-21T14:27:58;1.63;;;0.90;;
9823;SDS011;4951;50.778;7.196;2022-09-21T14:30:33;0.70;;;0.70;;
9823;SDS011;4951;50.778;7.196;2022-09-21T14:33:15;1.33;;;0.88;;
9823;SDS011;4951;50.778;7.196;2022-09-21T14:35:52;1.25;;;0.82;;
9823;SDS011;4951;50.778;7.196;2022-09-21T14:38:25;0.70;;;0.70;;
9823;SDS011;4951;50.778;7.196;2022-09-21T14:41:19;0.95;;;0.70;;
9823;SDS011;4951;50.778;7.196;2022-09-21T14:44:42;1.13;;;0.90;;
9823;SDS011;4951;50.778;7.196;2022-09-21T14:47:40;1.35;;;0.80;;
9823;SDS011;4951;50.778;7.196;2022-09-21T14:50:33;1.77;;;0.82;;
9823;SDS011;4951;50.778;7.196;2022-09-21T14:53:27;0.98;;;0.88;;
9823;SDS011;4951;50.778;7.196;2022-09-21T14:56:10;0.88;;;0.80;;
9823;SDS011;4951;50.778;7.196;2022-09-21T14:59:15;1.05;;;0.90;;
9823;SDS011;4951;50.778;7.196;2022-09-21T15:02:10;0.95;;;0.80;;
9823;SDS011;4951;50.778;7.196;2022-09-21T15:04:59;0.88;;;0.80;;
9823;SDS011;4951;50.778;7.196;2022-09-21T15:07:48;1.33;;;0.95;;
9823;SDS011;4951;50.778;7.196;2022-09-21T15:10:46;0.82;;;0.80;;
9823;SDS011;4951;50.778;7.196;2022-09-21T15:13:47;1.15;;;0.90;;
9823;SDS011;4951;50.778;7.196;2022-09-21T15:16:28;1.05;;;0.73;;
9823;SDS011;4951;50.778;7.196;2022-09-21T15:19:10;1.15;;;0.80;;
9823;SDS011;4951;50.778;7.196;2022-09-21T15:21:49;0.93;;;0.80;;
9823;SDS011;4951;50.778;7.196;2022-09-21T15:24:20;1.10;;;0.90;;
9823;SDS011;4951;50.778;7.196;2022-09-21T15:26:51;1.38;;;1.00;;
9823;SDS011;4951;50.778;7.196;2022-09-21T15:29:32;1.27;;;0.90;;
9823;SDS011;4951;50.778;7.196;2022-09-21T15:32:05;1.38;;;0.90;;
9823;SDS011;4951;50.778;7.196;2022-09-21T15:34:32;1.15;;;1.05;;
9823;SDS011;4951;50.778;7.196;2022-09-21T15:37:06;1.85;;;1.00;;
9823;SDS011;4951;50.778;7.196;2022-09-21T15:39:42;2.25;;;1.08;;
9823;SDS011;4951;50.778;7.196;2022-09-21T15:42:12;1.67;;;0.98;;
9823;SDS011;4951;50.778;7.196;2022-09-21T15:44:44;1.75;;;1.00;;
9823;SDS011;4951;50.778;7.196;2022-09-21T15:47:30;3.22;;;1.00;;
9823;SDS011;4951;50.778;7.196;2022-09-21T15:50:10;1.13;;;1.02;;
9823;SDS011;4951;50.778;7.196;2022-09-21T15:52:44;1.20;;;0.85;;
9823;SDS011;4951;50.778;7.196;2022-09-21T15:55:19;2.40;;;1.10;;
9823;SDS011;4951;50.778;7.196;2022-09-21T15:57:53;1.42;;;1.15;;
9823;SDS011;4951;50.778;7.196;2022-09-21T16:00:27;2.50;;;1.20;;
9823;SDS011;4951;50.778;7.196;2022-09-21T16:03:03;1.58;;;1.00;;
9823;SDS011;4951;50.778;7.196;2022-09-21T16:05:43;2.40;;;1.10;;
9823;SDS011;4951;50.778;7.196;2022-09-21T16:11:13;1.97;;;1.20;;
9823;SDS011;4951;50.778;7.196;2022-09-21T16:14:03;2.60;;;1.37;;
9823;SDS011;4951;50.778;7.196;2022-09-21T16:17:04;1.70;;;1.13;;
9823;SDS011;4951;50.778;7.196;2022-09-21T16:22:37;1.43;;;1.07;;
9823;SDS011;4951;50.778;7.196;2022-09-21T16:25:27;1.23;;;1.00;;
9823;SDS011;4951;50.778;7.196;2022-09-21T16:28:01;2.40;;;1.23;;
9823;SDS011;4951;50.778;7.196;2022-09-21T16:30:52;2.23;;;1.10;;
9823;SDS011;4951;50.778;7.196;2022-09-21T16:33:55;1.87;;;1.10;;
9823;SDS011;4951;50.778;7.196;2022-09-21T16:36:40;2.97;;;1.20;;
9823;SDS011;4951;50.778;7.196;2022-09-21T16:39:21;4.83;;;1.10;;
9823;SDS011;4951;50.778;7.196;2022-09-21T16:42:11;3.47;;;1.10;;
9823;SDS011;4951;50.778;7.196;2022-09-21T16:44:50;1.47;;;1.00;;
9823;SDS011;4951;50.778;7.196;2022-09-21T16:47:47;1.47;;;1.10;;
9823;SDS011;4951;50.778;7.196;2022-09-21T16:50:22;2.80;;;1.40;;
9823;SDS011;4951;50.778;7.196;2022-09-21T16:52:56;1.20;;;1.00;;
9823;SDS011;4951;50.778;7.196;2022-09-21T16:55:27;1.93;;;1.10;;
9823;SDS011;4951;50.778;7.196;2022-09-21T16:58:07;1.40;;;1.20;;
9823;SDS011;4951;50.778;7.196;2022-09-21T17:00:40;2.00;;;1.00;;
9823;SDS011;4951;50.778;7.196;2022-09-21T17:03:16;1.60;;;1.03;;
9823;SDS011;4951;50.778;7.196;2022-09-21T17:05:53;2.73;;;1.17;;
9823;SDS011;4951;50.778;7.196;2022-09-21T17:08:26;2.00;;;1.20;;
9823;SDS011;4951;50.778;7.196;2022-09-21T17:10:56;1.80;;;1.13;;
9823;SDS011;4951;50.778;7.196;2022-09-21T17:13:26;3.13;;;1.20;;
9823;SDS011;4951;50.778;7.196;2022-09-21T17:16:04;1.97;;;1.30;;